Time;durP1;ratioP1;P1;durP2;ratioP2;P2;SDS_P1;SDS_P2;PMS_P1;PMS_P2;Temp;Humidity;BMP_temperature;BMP_pressure;BME280_temperature;BME280_humidity;BME280_pressure;Samples;Min_cycle;Max_cycle;Signal;HPM_P1;HPM_P2
2021/11/19 00:01:11;;;;;;;11.40;3.50;;;;;;;8.02;76.46;100887.59;102606;1313;24279;-60
2021/11/19 00:03:45;;;;;;;16.30;2.30;;;;;;;8.00;76.61;100887.77;103267;1313;25290;-60
2021/11/19 00:06:17;;;;;;;10.30;2.00;;;;;;;7.97;76.70;100886.00;103726;1312;23948;-63
2021/11/19 00:08:50;;;;;;;8.00;1.70;;;;;;;7.96;76.97;100879.31;103588;1301;22775;-61
2021/11/19 00:11:24;;;;;;;11.80;1.90;;;;;;;7.94;77.25;100878.18;103055;1312;25962;-61
2021/11/19 00:13:57;;;;;;;10.00;1.60;;;;;;;7.93;77.42;100874.23;102871;1312;25370;-64
2021/11/19 00:16:28;;;;;;;8.80;2.00;;;;;;;7.92;77.49;100872.37;102822;1312;22575;-64
2021/11/19 00:19:00;;;;;;;6.90;1.40;;;;;;;7.92;77.62;100872.69;102697;1312;24387;-64
2021/11/19 00:21:34;;;;;;;7.30;1.70;;;;;;;7.92;77.72;100864.91;106584;1312;22982;-62
2021/11/19 00:24:06;;;;;;;8.90;1.90;;;;;;;7.91;77.76;100858.33;105610;1319;25313;-61
2021/11/19 00:26:39;;;;;;;7.60;1.50;;;;;;;7.92;77.92;100863.23;102678;1317;24307;-62
2021/11/19 00:29:15;;;;;;;10.60;2.30;;;;;;;7.92;78.42;100862.21;102653;1312;22566;-61
2021/11/19 00:31:47;;;;;;;8.70;2.60;;;;;;;7.90;78.41;100864.66;103163;1312;25336;-61
2021/11/19 00:34:18;;;;;;;8.00;1.80;;;;;;;7.88;78.47;100865.73;102712;1317;24199;-64
2021/11/19 00:36:51;;;;;;;13.20;1.80;;;;;;;7.87;78.54;100862.51;102642;1312;25223;-63
2021/11/19 00:39:22;;;;;;;8.20;1.90;;;;;;;7.86;78.78;100861.69;102709;1316;22638;-64
2021/11/19 00:42:24;;;;;;;7.10;1.70;;;;;;;7.85;78.69;100857.71;102742;1316;22580;-64
2021/11/19 00:44:56;;;;;;;10.90;2.00;;;;;;;7.86;78.79;100856.92;102895;1317;24472;-63
2021/11/19 00:47:27;;;;;;;11.60;1.60;;;;;;;7.85;78.91;100857.59;102755;1312;22746;-63
2021/11/19 00:49:59;;;;;;;9.90;1.80;;;;;;;7.86;78.86;100863.59;102813;1317;23287;-64
2021/11/19 00:52:31;;;;;;;8.00;1.80;;;;;;;7.86;78.90;100857.28;102782;1316;25338;-63
2021/11/19 00:55:02;;;;;;;9.50;2.10;;;;;;;7.88;78.93;100859.85;102855;1317;22538;-64
2021/11/19 00:57:33;;;;;;;9.30;2.20;;;;;;;7.89;78.87;100860.61;102699;1313;22571;-64
2021/11/19 01:00:08;;;;;;;9.30;1.70;;;;;;;7.91;78.88;100861.27;102864;1314;22589;-63
2021/11/19 01:02:40;;;;;;;9.90;2.00;;;;;;;7.92;78.68;100858.05;102951;1317;25355;-65
2021/11/19 01:05:12;;;;;;;8.00;1.80;;;;;;;7.94;78.77;100854.73;102954;1317;25429;-64
2021/11/19 01:07:43;;;;;;;7.80;1.50;;;;;;;7.96;78.79;100851.75;102941;1316;25829;-64
2021/11/19 01:10:17;;;;;;;8.70;1.70;;;;;;;7.97;78.76;100848.77;102903;1312;22959;-64
2021/11/19 01:12:51;;;;;;;7.90;1.90;;;;;;;7.99;78.88;100851.33;102937;1310;22574;-64
2021/11/19 01:15:26;;;;;;;10.80;2.00;;;;;;;7.98;79.36;100851.66;102894;1309;22631;-63
2021/11/19 01:18:01;;;;;;;8.60;1.60;;;;;;;7.96;79.80;100845.11;102879;1319;22723;-65
2021/11/19 01:20:36;;;;;;;8.20;1.80;;;;;;;7.93;79.99;100841.37;102930;1312;25311;-64
2021/11/19 01:23:10;;;;;;;8.80;1.90;;;;;;;7.88;80.38;100838.91;102883;1312;22603;-63
2021/11/19 01:25:44;;;;;;;11.80;2.40;;;;;;;7.83;80.41;100843.58;103080;1312;22590;-63
2021/11/19 01:28:17;;;;;;;7.10;1.60;;;;;;;7.80;80.82;100850.11;102874;1312;25476;-64
2021/11/19 01:30:52;;;;;;;7.80;1.60;;;;;;;7.76;81.05;100845.96;102800;1316;22648;-64
2021/11/19 01:33:23;;;;;;;10.00;2.00;;;;;;;7.72;81.33;100843.54;102837;1313;25580;-64
2021/11/19 01:35:54;;;;;;;10.00;1.80;;;;;;;7.70;81.60;100842.27;102887;1312;22612;-63
2021/11/19 01:38:26;;;;;;;7.10;1.70;;;;;;;7.67;81.67;100840.83;102919;1313;24202;-63
2021/11/19 01:41:01;;;;;;;5.40;1.20;;;;;;;7.65;81.68;100843.98;102948;1309;24272;-63
2021/11/19 01:43:34;;;;;;;9.90;2.70;;;;;;;7.64;81.98;100842.20;102771;1317;22622;-63
2021/11/19 01:46:17;;;;;;;8.00;1.70;;;;;;;7.62;82.19;100829.48;102837;1313;22577;-63
2021/11/19 01:48:51;;;;;;;10.10;2.10;;;;;;;7.61;82.33;100828.73;102980;1313;25293;-64
2021/11/19 01:51:27;;;;;;;9.40;1.70;;;;;;;7.59;82.28;100827.98;103338;1312;25379;-63
2021/11/19 01:54:10;;;;;;;10.20;1.90;;;;;;;7.59;82.37;100826.96;103058;1319;26583;-64
2021/11/19 01:56:54;;;;;;;7.90;1.80;;;;;;;7.60;82.60;100826.77;102735;1316;22590;-63
2021/11/19 01:59:30;;;;;;;9.40;1.40;;;;;;;7.61;82.72;100818.98;102836;1312;22613;-63
2021/11/19 02:02:05;;;;;;;5.80;1.60;;;;;;;7.60;82.98;100815.88;102729;1313;24317;-64
2021/11/19 02:04:39;;;;;;;5.40;1.20;;;;;;;7.59;83.13;100810.04;102985;1312;22590;-64
2021/11/19 02:07:16;;;;;;;5.10;1.20;;;;;;;7.59;83.23;100805.62;102856;1312;22571;-63
2021/11/19 02:10:00;;;;;;;5.20;1.30;;;;;;;7.58;83.52;100805.54;102960;1311;23985;-63
2021/11/19 02:12:44;;;;;;;7.70;1.20;;;;;;;7.57;83.42;100797.89;103098;1312;22618;-63
2021/11/19 02:15:18;;;;;;;8.80;1.40;;;;;;;7.57;83.54;100795.13;102863;1316;25426;-63
2021/11/19 02:17:52;;;;;;;3.30;1.00;;;;;;;7.56;83.86;100793.08;102968;1312;24351;-63
2021/11/19 02:20:28;;;;;;;4.40;1.50;;;;;;;7.55;83.94;100789.61;102977;1313;22592;-63
2021/11/19 02:23:03;;;;;;;6.00;1.00;;;;;;;7.55;84.19;100782.33;103111;1312;22590;-64
2021/11/19 02:25:39;;;;;;;5.80;1.30;;;;;;;7.53;84.30;100783.31;102918;1312;22615;-63
2021/11/19 02:28:15;;;;;;;4.80;1.20;;;;;;;7.52;84.17;100778.59;102946;1313;26586;-63
2021/11/19 02:30:54;;;;;;;4.70;1.10;;;;;;;7.52;84.32;100781.94;102749;1312;22587;-63
2021/11/19 02:33:28;;;;;;;4.00;1.00;;;;;;;7.52;84.55;100782.09;102842;1312;24292;-63
2021/11/19 02:36:05;;;;;;;5.50;1.10;;;;;;;7.50;84.79;100781.59;102861;1318;24458;-63
2021/11/19 02:38:40;;;;;;;4.80;1.10;;;;;;;7.51;84.95;100778.97;102958;1312;25326;-64
2021/11/19 02:41:14;;;;;;;4.60;1.20;;;;;;;7.51;85.09;100781.59;102971;1318;25834;-63
2021/11/19 02:43:48;;;;;;;4.00;1.10;;;;;;;7.50;85.42;100782.63;102832;1312;25387;-63
2021/11/19 02:46:23;;;;;;;5.20;1.00;;;;;;;7.50;85.59;100780.96;102847;1313;22566;-63
2021/11/19 02:48:54;;;;;;;4.00;1.10;;;;;;;7.49;85.43;100774.88;102893;1317;22581;-63
2021/11/19 02:51:29;;;;;;;2.70;0.90;;;;;;;7.49;85.54;100779.88;103024;1317;24279;-63
2021/11/19 02:54:01;;;;;;;4.90;1.10;;;;;;;7.49;85.89;100781.77;102916;1314;22617;-63
2021/11/19 02:56:32;;;;;;;5.20;1.10;;;;;;;7.49;85.91;100789.31;103075;1313;22998;-63
2021/11/19 02:59:05;;;;;;;6.20;1.00;;;;;;;7.49;85.91;100791.84;102981;1312;25553;-63
2021/11/19 03:01:40;;;;;;;4.70;1.30;;;;;;;7.49;85.90;100782.19;103078;1312;22575;-63
2021/11/19 03:04:16;;;;;;;4.70;1.00;;;;;;;7.49;86.44;100775.84;103116;1313;22591;-62
2021/11/19 03:06:51;;;;;;;5.60;1.20;;;;;;;7.49;86.51;100774.96;102798;1312;22612;-63
2021/11/19 03:09:25;;;;;;;5.30;1.40;;;;;;;7.49;86.60;100775.05;102951;1312;23975;-62
2021/11/19 03:11:56;;;;;;;5.80;1.00;;;;;;;7.49;86.65;100779.81;102965;1317;22564;-63
2021/11/19 03:14:28;;;;;;;3.90;1.10;;;;;;;7.49;86.57;100774.72;102883;1312;22577;-62
2021/11/19 03:17:00;;;;;;;4.20;1.20;;;;;;;7.49;86.84;100779.06;102881;1313;22577;-64
2021/11/19 03:19:31;;;;;;;4.50;1.00;;;;;;;7.51;87.04;100780.39;102910;1312;22883;-64
2021/11/19 03:22:04;;;;;;;5.10;1.10;;;;;;;7.51;86.93;100778.54;102869;1312;22637;-63
2021/11/19 03:24:35;;;;;;;3.70;1.00;;;;;;;7.52;87.24;100781.45;102823;1317;23993;-63
2021/11/19 03:27:11;;;;;;;3.40;0.80;;;;;;;7.52;87.31;100777.34;102789;1312;22589;-63
2021/11/19 03:29:43;;;;;;;5.10;1.00;;;;;;;7.52;87.82;100774.55;102940;1318;22600;-63
2021/11/19 03:32:17;;;;;;;4.50;1.10;;;;;;;7.51;87.91;100773.79;102828;1313;22628;-62
2021/11/19 03:34:49;;;;;;;4.10;1.00;;;;;;;7.50;87.83;100770.79;102852;1312;22639;-63
2021/11/19 03:37:21;;;;;;;4.30;1.20;;;;;;;7.51;87.92;100766.65;102935;1313;22583;-63
2021/11/19 03:39:52;;;;;;;4.90;1.00;;;;;;;7.51;87.92;100767.63;102712;1312;25430;-63
2021/11/19 03:42:25;;;;;;;4.60;1.10;;;;;;;7.50;87.93;100772.05;102781;1317;25371;-63
2021/11/19 03:45:00;;;;;;;5.20;1.10;;;;;;;7.51;88.14;100766.32;102936;1318;25378;-63
2021/11/19 03:47:34;;;;;;;4.60;1.40;;;;;;;7.52;88.04;100767.18;103035;1315;22594;-63
2021/11/19 03:50:15;;;;;;;4.90;1.20;;;;;;;7.53;88.28;100767.23;102820;1318;22579;-63
2021/11/19 03:52:47;;;;;;;4.40;1.00;;;;;;;7.53;88.35;100764.73;102877;1317;25738;-63
2021/11/19 03:55:20;;;;;;;5.70;1.30;;;;;;;7.55;88.16;100765.00;102837;1313;22630;-63
2021/11/19 03:57:52;;;;;;;5.20;1.60;;;;;;;7.57;88.50;100767.64;102944;1312;25316;-63
2021/11/19 04:00:26;;;;;;;5.60;1.20;;;;;;;7.58;88.54;100763.56;103025;1312;24312;-63
2021/11/19 04:02:58;;;;;;;5.60;1.30;;;;;;;7.60;88.44;100763.64;103037;1316;24297;-63
2021/11/19 04:05:31;;;;;;;8.90;1.70;;;;;;;7.61;88.47;100764.34;103170;1319;22601;-63
2021/11/19 04:08:02;;;;;;;7.10;1.50;;;;;;;7.62;88.53;100759.52;103336;1317;22798;-63
2021/11/19 04:10:34;;;;;;;5.00;1.40;;;;;;;7.64;88.61;100763.69;102988;1310;22666;-62
2021/11/19 04:13:06;;;;;;;8.40;2.50;;;;;;;7.66;88.75;100764.32;103071;1312;22590;-62
2021/11/19 04:15:42;;;;;;;6.60;1.60;;;;;;;7.68;89.10;100765.86;103140;1312;22541;-62
2021/11/19 04:18:14;;;;;;;6.30;2.00;;;;;;;7.70;89.01;100766.41;103114;1309;25476;-63
2021/11/19 04:20:46;;;;;;;7.60;1.80;;;;;;;7.71;88.96;100765.67;103023;1316;22589;-63
2021/11/19 04:23:18;;;;;;;5.70;1.80;;;;;;;7.72;89.12;100761.11;103122;1314;22574;-63
2021/11/19 04:25:50;;;;;;;6.70;1.90;;;;;;;7.73;89.18;100755.92;103010;1312;22748;-62
2021/11/19 04:28:21;;;;;;;8.00;2.20;;;;;;;7.74;89.06;100753.13;103102;1310;25246;-62
2021/11/19 04:30:54;;;;;;;6.50;1.60;;;;;;;7.75;89.18;100755.69;103147;1312;24671;-63
2021/11/19 04:33:26;;;;;;;8.70;2.50;;;;;;;7.76;89.28;100760.02;103137;1314;22677;-63
2021/11/19 04:35:58;;;;;;;7.60;2.30;;;;;;;7.77;89.52;100761.35;102936;1310;22677;-62
2021/11/19 04:38:29;;;;;;;9.10;2.40;;;;;;;7.77;89.70;100760.37;102888;1312;23346;-62
2021/11/19 04:41:03;;;;;;;10.80;3.10;;;;;;;7.78;89.49;100760.45;102883;1314;25348;-63
2021/11/19 04:43:35;;;;;;;7.30;2.40;;;;;;;7.78;89.63;100761.61;106811;1314;22424;-67
2021/11/19 04:46:09;;;;;;;8.80;2.80;;;;;;;7.78;89.52;100759.39;106509;1313;22424;-64
2021/11/19 04:48:40;;;;;;;7.20;2.50;;;;;;;7.80;89.73;100757.19;106818;1310;22248;-64
2021/11/19 04:51:14;;;;;;;8.20;2.50;;;;;;;7.82;89.74;100757.05;106785;1317;23019;-63
2021/11/19 04:53:46;;;;;;;12.10;2.70;;;;;;;7.83;89.90;100746.19;106758;1318;23134;-63
2021/11/19 04:56:18;;;;;;;9.60;2.60;;;;;;;7.86;89.98;100748.56;106733;1312;22452;-63
2021/11/19 04:58:49;;;;;;;9.30;2.50;;;;;;;7.87;90.18;100748.13;106872;1310;22439;-64
2021/11/19 05:01:23;;;;;;;12.20;3.80;;;;;;;7.90;89.95;100745.09;106856;1314;22424;-64
2021/11/19 05:03:54;;;;;;;10.10;3.30;;;;;;;7.93;90.04;100746.60;106729;1309;22430;-64
2021/11/19 05:06:25;;;;;;;11.90;4.00;;;;;;;7.95;89.83;100750.02;106770;1314;22491;-63
2021/11/19 05:08:56;;;;;;;12.20;4.50;;;;;;;7.96;89.86;100745.84;106766;1314;23501;-63
2021/11/19 05:11:31;;;;;;;10.00;3.80;;;;;;;7.98;90.02;100748.48;106798;1310;22264;-63
2021/11/19 05:14:02;;;;;;;10.00;2.70;;;;;;;8.00;90.03;100749.92;106821;1309;22509;-63
2021/11/19 05:16:33;;;;;;;11.20;4.40;;;;;;;8.02;90.16;100751.04;106839;1314;22468;-62
2021/11/19 05:19:06;;;;;;;10.60;3.60;;;;;;;8.03;90.06;100751.95;106340;1316;23152;-62
2021/11/19 05:21:37;;;;;;;16.10;5.90;;;;;;;8.05;90.34;100757.84;106715;1310;22375;-63
2021/11/19 05:24:09;;;;;;;15.20;4.20;;;;;;;8.08;90.41;100764.10;106860;1317;22508;-63
2021/11/19 05:26:42;;;;;;;17.40;5.10;;;;;;;8.09;90.16;100758.25;106757;1314;23103;-63
2021/11/19 05:29:14;;;;;;;12.90;4.60;;;;;;;8.11;90.26;100761.45;106818;1314;22412;-63
2021/11/19 05:31:47;;;;;;;17.50;6.20;;;;;;;8.12;90.09;100758.32;106817;1316;23235;-62
2021/11/19 05:34:20;;;;;;;13.20;4.80;;;;;;;8.14;90.21;100763.98;106813;1313;23230;-61
2021/11/19 05:36:51;;;;;;;14.20;4.20;;;;;;;8.15;90.11;100771.63;106782;1313;22420;-61
2021/11/19 05:39:22;;;;;;;16.90;5.60;;;;;;;8.17;90.05;100772.61;106727;1312;23324;-58
2021/11/19 05:41:54;;;;;;;17.10;6.40;;;;;;;8.21;90.20;100765.33;106833;1317;22928;-59
2021/11/19 05:44:25;;;;;;;16.30;5.60;;;;;;;8.23;90.13;100772.15;106681;1312;22248;-60
2021/11/19 05:46:57;;;;;;;19.30;6.90;;;;;;;8.25;90.05;100774.02;106802;1312;23363;-61
2021/11/19 05:49:28;;;;;;;18.10;5.80;;;;;;;8.27;90.00;100776.11;106677;1316;22539;-61
2021/11/19 05:52:01;;;;;;;18.30;5.90;;;;;;;8.29;90.13;100777.71;106660;1317;23020;-62
2021/11/19 05:54:33;;;;;;;20.30;6.50;;;;;;;8.31;89.99;100777.42;106743;1315;22408;-60
2021/11/19 05:57:07;;;;;;;16.10;5.10;;;;;;;8.32;90.05;100776.10;106770;1313;22409;-61
2021/11/19 05:59:38;;;;;;;15.10;6.00;;;;;;;8.34;90.13;100784.30;106683;1319;22273;-60
2021/11/19 06:02:11;;;;;;;17.00;5.90;;;;;;;8.35;90.11;100787.44;106794;1315;23493;-58
2021/11/19 06:04:42;;;;;;;16.40;5.30;;;;;;;8.36;90.13;100784.94;106738;1312;23703;-59
2021/11/19 06:07:13;;;;;;;14.80;4.40;;;;;;;8.36;90.07;100784.59;106704;1313;22668;-59
2021/11/19 06:09:46;;;;;;;14.30;4.90;;;;;;;8.37;90.02;100784.73;104646;1300;22648;-59
2021/11/19 06:12:21;;;;;;;16.50;6.40;;;;;;;8.39;89.91;100786.33;103299;1309;24037;-60
2021/11/19 06:14:55;;;;;;;15.60;4.30;;;;;;;8.42;89.83;100788.63;106860;1313;23269;-60
2021/11/19 06:17:30;;;;;;;15.20;5.70;;;;;;;8.44;89.88;100791.16;106892;1312;22807;-60
2021/11/19 06:20:05;;;;;;;17.70;5.40;;;;;;;8.47;89.85;100798.37;106671;1313;22994;-58
2021/11/19 06:22:39;;;;;;;16.30;6.30;;;;;;;8.50;89.66;100800.11;106666;1316;22480;-60
2021/11/19 06:25:15;;;;;;;16.00;4.90;;;;;;;8.52;89.63;100807.98;106888;1309;22420;-60
2021/11/19 06:27:47;;;;;;;17.00;4.50;;;;;;;8.55;89.67;100806.91;106906;1314;22307;-60
2021/11/19 06:30:19;;;;;;;14.20;5.10;;;;;;;8.57;89.59;100812.64;106909;1313;23228;-60
2021/11/19 06:32:52;;;;;;;16.10;5.40;;;;;;;8.60;89.62;100814.19;106905;1314;23136;-60
2021/11/19 06:35:24;;;;;;;15.20;3.90;;;;;;;8.62;89.58;100810.79;104497;1314;22614;-61
2021/11/19 06:37:55;;;;;;;15.80;5.30;;;;;;;8.64;89.56;100817.08;103331;1312;22899;-60
2021/11/19 06:40:31;;;;;;;14.10;3.80;;;;;;;8.65;89.54;100819.66;103784;1313;23848;-61
2021/11/19 06:43:03;;;;;;;14.30;5.10;;;;;;;8.66;89.51;100820.81;103554;1313;22563;-61
2021/11/19 06:45:35;;;;;;;10.90;3.80;;;;;;;8.67;89.64;100825.59;103695;1312;22640;-60
2021/11/19 06:48:09;;;;;;;14.30;4.50;;;;;;;8.67;89.55;100826.67;103701;1313;22574;-62
2021/11/19 06:50:44;;;;;;;14.20;4.60;;;;;;;8.69;89.57;100824.69;103567;1317;22581;-60
2021/11/19 06:53:18;;;;;;;12.00;4.10;;;;;;;8.70;89.62;100825.20;103606;1313;24241;-62
2021/11/19 06:55:51;;;;;;;15.10;5.30;;;;;;;8.72;89.56;100825.86;103472;1312;22598;-62
2021/11/19 06:58:23;;;;;;;18.30;5.80;;;;;;;8.73;89.53;100825.29;103493;1310;22579;-61
2021/11/19 07:00:57;;;;;;;18.00;5.70;;;;;;;8.74;89.51;100826.59;103342;1310;22614;-61
2021/11/19 07:03:29;;;;;;;14.50;4.90;;;;;;;8.76;89.59;100832.33;103338;1317;24264;-60
2021/11/19 07:06:01;;;;;;;15.00;4.80;;;;;;;8.77;89.52;100836.36;103326;1313;24464;-61
2021/11/19 07:08:34;;;;;;;16.70;6.20;;;;;;;8.78;89.48;100837.26;103650;1313;25242;-59
2021/11/19 07:11:09;;;;;;;16.30;5.40;;;;;;;8.79;89.39;100843.13;103284;1316;25281;-59
2021/11/19 07:13:42;;;;;;;16.60;6.70;;;;;;;8.80;89.55;100836.14;103220;1313;22592;-60
2021/11/19 07:16:16;;;;;;;15.90;5.70;;;;;;;8.81;89.42;100843.16;103150;1312;24301;-59
2021/11/19 07:18:50;;;;;;;17.00;5.40;;;;;;;8.83;89.46;100842.41;103119;1312;25384;-60
2021/11/19 07:21:25;;;;;;;16.30;6.10;;;;;;;8.84;89.47;100836.48;103374;1313;22574;-59
2021/11/19 07:24:00;;;;;;;18.60;5.50;;;;;;;8.84;89.47;100837.34;103115;1318;23959;-60
2021/11/19 07:26:34;;;;;;;18.10;6.60;;;;;;;8.86;89.51;100836.17;103782;1313;22567;-59
2021/11/19 07:29:07;;;;;;;20.80;6.60;;;;;;;8.87;89.48;100835.42;103060;1317;22685;-59
2021/11/19 07:31:39;;;;;;;18.80;6.10;;;;;;;8.88;89.49;100843.73;103064;1312;23256;-60
2021/11/19 07:34:11;;;;;;;15.60;4.60;;;;;;;8.89;89.53;100835.48;102960;1312;22641;-60
2021/11/19 07:36:44;;;;;;;17.40;6.00;;;;;;;8.91;89.53;100836.87;103012;1316;25688;-60
2021/11/19 07:39:16;;;;;;;14.80;5.30;;;;;;;8.92;89.48;100846.04;103068;1312;25453;-61
2021/11/19 07:41:48;;;;;;;15.20;5.00;;;;;;;8.94;89.47;100848.17;103075;1316;24253;-61
2021/11/19 07:44:20;;;;;;;18.60;6.00;;;;;;;8.96;89.59;100849.09;103067;1318;24289;-59
2021/11/19 07:46:53;;;;;;;20.30;6.70;;;;;;;8.98;89.59;100853.64;103188;1318;22706;-60
2021/11/19 07:49:25;;;;;;;14.30;5.20;;;;;;;8.99;89.49;100858.67;103106;1318;22681;-62
2021/11/19 07:51:58;;;;;;;16.50;5.50;;;;;;;9.02;89.41;100858.20;103031;1318;22608;-58
2021/11/19 07:54:30;;;;;;;16.60;6.30;;;;;;;9.04;89.52;100859.95;103169;1315;22590;-61
2021/11/19 07:57:04;;;;;;;16.70;5.60;;;;;;;9.06;89.56;100860.50;102986;1319;22594;-60
2021/11/19 07:59:36;;;;;;;18.60;6.50;;;;;;;9.08;89.59;100860.14;103109;1314;22587;-61
2021/11/19 08:02:08;;;;;;;15.60;6.00;;;;;;;9.10;89.54;100862.50;102992;1315;22564;-60
2021/11/19 08:04:39;;;;;;;15.00;5.80;;;;;;;9.13;89.35;100855.73;103085;1312;22573;-61
2021/11/19 08:07:10;;;;;;;19.30;6.70;;;;;;;9.14;89.33;100857.02;103457;1312;23884;-61
2021/11/19 08:09:42;;;;;;;16.10;5.50;;;;;;;9.15;89.47;100851.88;103367;1312;22706;-59
2021/11/19 08:12:13;;;;;;;15.40;5.40;;;;;;;9.17;89.23;100851.67;103697;1309;24239;-60
2021/11/19 08:14:44;;;;;;;16.40;5.60;;;;;;;9.19;89.34;100855.71;103638;1317;24280;-59
2021/11/19 08:17:20;;;;;;;15.20;4.70;;;;;;;9.22;89.22;100852.67;103678;1313;22564;-59
2021/11/19 08:19:52;;;;;;;14.50;5.20;;;;;;;9.23;89.32;100849.92;103730;1313;22638;-61
2021/11/19 08:22:24;;;;;;;17.30;6.40;;;;;;;9.25;89.27;100849.22;103773;1316;22671;-60
2021/11/19 08:24:56;;;;;;;15.70;5.30;;;;;;;9.26;89.33;100849.89;103816;1313;22592;-59
2021/11/19 08:27:31;;;;;;;14.20;4.50;;;;;;;9.28;89.30;100848.00;103793;1312;22722;-60
2021/11/19 08:30:06;;;;;;;13.80;4.90;;;;;;;9.29;89.25;100850.58;103843;1318;22692;-62
2021/11/19 08:32:37;;;;;;;12.70;4.50;;;;;;;9.30;89.17;100851.08;103820;1318;22554;-62
2021/11/19 08:35:11;;;;;;;15.60;4.90;;;;;;;9.32;89.24;100859.05;103750;1312;22589;-60
2021/11/19 08:37:45;;;;;;;15.20;4.50;;;;;;;9.34;89.23;100866.92;103759;1313;24298;-61
2021/11/19 08:40:18;;;;;;;16.00;5.20;;;;;;;9.36;89.23;100866.69;103822;1310;22568;-62
2021/11/19 08:42:50;;;;;;;15.50;4.70;;;;;;;9.38;89.22;100866.63;103748;1313;23025;-60
2021/11/19 08:45:23;;;;;;;14.10;4.90;;;;;;;9.40;89.15;100867.92;103907;1312;24268;-60
2021/11/19 08:47:57;;;;;;;13.50;4.40;;;;;;;9.42;89.18;100871.66;103735;1318;22696;-60
2021/11/19 08:50:31;;;;;;;14.30;4.70;;;;;;;9.43;89.29;100872.64;104050;1319;23985;-61
2021/11/19 08:53:03;;;;;;;11.60;4.00;;;;;;;9.45;89.10;100878.63;103713;1313;22577;-62
2021/11/19 08:55:34;;;;;;;12.10;3.60;;;;;;;9.47;89.18;100883.62;103586;1314;22757;-60
2021/11/19 08:58:05;;;;;;;14.10;5.20;;;;;;;9.49;89.21;100888.90;103488;1318;25482;-61
2021/11/19 09:00:38;;;;;;;14.20;4.20;;;;;;;9.51;89.12;100895.98;103396;1313;22620;-62
2021/11/19 09:03:10;;;;;;;14.00;5.10;;;;;;;9.52;88.96;100888.86;103712;1313;22557;-62
2021/11/19 09:05:44;;;;;;;11.50;4.60;;;;;;;9.54;88.94;100898.96;103691;1314;25249;-61
2021/11/19 09:08:20;;;;;;;14.20;4.20;;;;;;;9.56;88.98;100899.83;103510;1317;22740;-61
2021/11/19 09:10:54;;;;;;;12.00;4.30;;;;;;;9.58;88.91;100897.13;103763;1313;24257;-61
2021/11/19 09:13:27;;;;;;;13.30;3.80;;;;;;;9.61;88.93;100897.92;103853;1315;22635;-61
2021/11/19 09:16:00;;;;;;;9.60;3.60;;;;;;;9.64;88.83;100898.77;103706;1313;22587;-60
2021/11/19 09:18:41;;;;;;;13.60;4.50;;;;;;;9.66;88.85;100896.77;103689;1313;22586;-62
2021/11/19 09:21:22;;;;;;;12.40;3.90;;;;;;;9.67;88.83;100893.37;103674;1317;22552;-60
2021/11/19 09:23:57;;;;;;;13.00;3.50;;;;;;;9.69;88.64;100897.13;103550;1318;25394;-61
2021/11/19 09:26:39;;;;;;;14.70;4.70;;;;;;;9.70;88.73;100896.70;103450;1318;22609;-59
2021/11/19 09:29:13;;;;;;;15.20;3.60;;;;;;;9.71;88.65;100899.27;103787;1310;25390;-60
2021/11/19 09:31:46;;;;;;;10.90;4.10;;;;;;;9.72;88.59;100899.15;103873;1310;22580;-61
2021/11/19 09:34:17;;;;;;;12.30;3.60;;;;;;;9.73;88.58;100903.33;103856;1312;23435;-61
2021/11/19 09:36:48;;;;;;;13.40;3.40;;;;;;;9.74;88.57;100896.20;103571;1313;25421;-62
2021/11/19 09:39:26;;;;;;;11.40;3.20;;;;;;;9.75;88.61;100897.58;104005;1314;22590;-61
2021/11/19 09:42:08;;;;;;;8.50;2.70;;;;;;;9.76;88.56;100898.68;103806;1317;24234;-60
2021/11/19 09:45:08;;;;;;;9.80;2.90;;;;;;;9.77;88.63;100894.56;103811;1315;22580;-61
2021/11/19 09:48:00;;;;;;;9.90;3.40;;;;;;;9.78;88.53;100899.70;103793;1312;25217;-59
2021/11/19 09:51:04;;;;;;;10.70;3.40;;;;;;;9.78;88.52;100893.48;103656;1314;22534;-61
2021/11/19 09:54:26;;;;;;;8.80;2.80;;;;;;;9.78;88.61;100897.70;103740;1313;22524;-62
2021/11/19 09:57:27;;;;;;;11.40;3.30;;;;;;;9.78;88.65;100897.64;103758;1319;22966;-60
2021/11/19 10:00:11;;;;;;;;;;;;;;;9.78;88.70;100898.75;103006;1324;24245;-61
2021/11/19 10:03:05;;;;;;;9.60;2.80;;;;;;;9.78;88.76;100899.55;103000;1322;25415;-60
2021/11/19 10:05:43;;;;;;;10.70;2.90;;;;;;;9.79;88.51;100899.17;103137;1323;24925;-60
2021/11/19 10:08:34;;;;;;;10.20;2.90;;;;;;;9.81;88.47;100897.30;103053;1318;22583;-60
2021/11/19 10:11:13;;;;;;;8.80;2.70;;;;;;;9.83;88.57;100900.09;102952;1318;23979;-62
2021/11/19 10:14:01;;;;;;;10.40;2.70;;;;;;;9.84;88.60;100894.30;103152;1317;22637;-60
2021/11/19 10:16:41;;;;;;;9.80;3.00;;;;;;;9.85;88.41;100893.94;102892;1316;25287;-59
2021/11/19 10:19:18;;;;;;;13.00;3.30;;;;;;;9.87;88.47;100894.96;102971;1322;22672;-61
2021/11/19 10:21:59;;;;;;;10.00;2.80;;;;;;;9.90;88.31;100888.73;103014;1322;22771;-61
2021/11/19 10:24:37;;;;;;;13.80;3.90;;;;;;;9.92;88.20;100887.92;103044;1321;22600;-58
2021/11/19 10:27:12;;;;;;;8.40;2.40;;;;;;;9.94;88.25;100894.29;103037;1322;24348;-62
2021/11/19 10:29:46;;;;;;;9.80;2.60;;;;;;;9.96;88.28;100884.82;103046;1324;22587;-60
2021/11/19 10:32:20;;;;;;;9.50;2.80;;;;;;;9.98;88.23;100879.08;102758;1318;25537;-59
2021/11/19 10:35:03;;;;;;;9.80;2.40;;;;;;;10.00;88.07;100878.11;102994;1318;22729;-61
2021/11/19 10:38:05;;;;;;;12.30;4.40;;;;;;;10.03;87.98;100872.53;102917;1319;25462;-59
2021/11/19 10:41:17;;;;;;;12.70;3.20;;;;;;;10.05;88.11;100874.24;102957;1312;22590;-60
2021/11/19 10:44:30;;;;;;;10.80;2.50;;;;;;;10.08;87.77;100875.57;103576;1312;22593;-60
2021/11/19 10:47:18;;;;;;;8.20;2.20;;;;;;;10.10;87.69;100873.50;103134;1312;22631;-60
2021/11/19 10:50:11;;;;;;;8.20;2.40;;;;;;;10.12;87.72;100871.90;103258;1315;22596;-59
2021/11/19 10:53:16;;;;;;;8.50;2.00;;;;;;;10.14;87.66;100870.17;102461;1318;22665;-60
2021/11/19 10:56:12;;;;;;;7.00;1.90;;;;;;;10.15;87.57;100873.96;102996;1318;22669;-59
2021/11/19 10:58:55;;;;;;;6.40;1.70;;;;;;;10.16;87.28;100865.79;103112;1316;25409;-60
2021/11/19 11:01:38;;;;;;;7.70;2.10;;;;;;;10.17;87.57;100858.73;103191;1322;22647;-63
2021/11/19 11:04:20;;;;;;;8.60;1.70;;;;;;;10.18;87.35;100851.80;103154;1316;22600;-61
2021/11/19 11:06:54;;;;;;;8.20;2.20;;;;;;;10.20;87.32;100849.92;103132;1317;22584;-62
2021/11/19 11:09:35;;;;;;;8.00;2.00;;;;;;;10.20;87.19;100847.50;103173;1316;24271;-59
2021/11/19 11:12:21;;;;;;;8.40;1.80;;;;;;;10.22;87.08;100843.53;103082;1322;22583;-61
2021/11/19 11:15:18;;;;;;;8.10;2.40;;;;;;;10.23;86.97;100845.40;103005;1317;22583;-59
2021/11/19 11:18:02;;;;;;;8.90;2.20;;;;;;;10.25;87.13;100841.59;103153;1323;22583;-61
2021/11/19 11:20:38;;;;;;;8.20;2.00;;;;;;;10.25;87.03;100840.29;103030;1321;24520;-59
2021/11/19 11:23:31;;;;;;;10.20;2.30;;;;;;;10.26;86.97;100839.36;103152;1317;24303;-61
2021/11/19 11:26:08;;;;;;;10.90;2.40;;;;;;;10.28;86.95;100842.25;103244;1322;25444;-58
2021/11/19 11:28:51;;;;;;;5.40;1.80;;;;;;;10.29;86.81;100837.08;103084;1318;23930;-61
2021/11/19 11:31:37;;;;;;;6.20;1.90;;;;;;;10.31;87.03;100831.19;103426;1319;22615;-60
2021/11/19 11:34:19;;;;;;;8.60;1.90;;;;;;;10.33;86.87;100834.63;103733;1314;25472;-61
2021/11/19 11:37:18;;;;;;;9.40;2.30;;;;;;;10.35;86.79;100834.93;103850;1317;24244;-61
2021/11/19 11:39:55;;;;;;;7.20;2.10;;;;;;;10.36;86.57;100841.23;99781;1316;5409690;-60
2021/11/19 11:42:35;;;;;;;8.40;2.30;;;;;;;10.38;86.67;100846.27;103865;1316;22576;-59
2021/11/19 11:45:25;;;;;;;8.80;2.00;;;;;;;10.40;86.61;100840.46;103781;1314;22845;-61
2021/11/19 11:48:14;;;;;;;8.50;1.90;;;;;;;10.41;86.54;100851.41;103305;1318;22596;-59
2021/11/19 11:50:55;;;;;;;9.30;2.20;;;;;;;10.42;86.50;100851.20;103503;1316;22788;-59
2021/11/19 11:53:39;;;;;;;9.40;2.30;;;;;;;10.42;86.53;100845.83;103245;1315;22686;-60
2021/11/19 11:56:29;;;;;;;10.40;2.70;;;;;;;10.44;86.42;100843.88;103165;1312;24304;-60
2021/11/19 11:59:12;;;;;;;7.80;2.10;;;;;;;10.44;86.54;100837.90;103190;1314;22586;-60